KOLF/OLF METAR and TAF weather

Enter ICAO airport designator
Station Type Date Time Source
KOLF METAR 2020/06/05 11:53 UTC NOAA

KOLF 051153Z AUTO 05003KT 10SM SCT110 04/01 A2999 RMK AO2 SLP157 T00440011 10083 20028 51009


Station Type Date Time Source
KOLF Decoded METAR 2020/06/05 11:53 UTC NOAA

WOLF POINT CLAYTON AIRPORT, MT, United States (KOLF) 48-06N 105-35W 604M
Jun 05, 2020 - 07:53 AM EDT / 2020.06.05 1153 UTC
Wind: from the NE (050 degrees) at 3 MPH (3 KT):0
Visibility: 10 mile(s):0
Sky conditions: partly cloudy
Temperature: 39.9 F (4.4 C)
Dew Point: 34.0 F (1.1 C)
Relative Humidity: 79%
Pressure (altimeter): 29.99 in. Hg (1015 hPa)
Pressure tendency: 0.03 inches (0.9 hPa) higher than three hours ago
ob: KOLF 051153Z AUTO 05003KT 10SM SCT110 04/01 A2999 RMK AO2 SLP157 T00440011 10083 20028 51009
cycle: 12

Station Type Date Time Source
KOLF TAF 2020/06/05 12:33 UTC NOAA

TAF KOLF 051130Z 0512/0612 VRB05KT P6SM FEW100
FM052200 11010KT P6SM BKN100
FM060400 09012G22KT P6SM FEW090
FM060700 10014G23KT P6SM SCT080 WS020/14050KT

Example: see airport list